Time,TemperatureF,DewpointF,PressureIn,WindDirection,WindDirectionDegrees,WindSpeedMPH,WindSpeedGustMPH,Humidity,HourlyPrecipIn,Conditions,Clouds,dailyrainin,SoftwareType,DateUTC
2013-03-10 00:00:00,46.8,37.9,29.84,West,278,0.0,4.0,71,0.00,RA,,0.00,WeatherDisplay:10.37,2013-03-09 23:00:00,
2013-03-10 00:14:00,46.9,38.0,29.84,NW,315,3.0,12.0,71,0.00,FEW,,0.00,WeatherDisplay:10.37,2013-03-09 23:14:00,
2013-03-10 00:30:00,47.7,38.4,29.85,NNW,331,0.0,11.0,70,0.00,FEW,,0.00,WeatherDisplay:10.37,2013-03-09 23:30:00,
2013-03-10 00:44:00,48.2,38.2,29.84,North,351,6.0,14.0,68,0.00,FEW,,0.00,WeatherDisplay:10.37,2013-03-09 23:44:00,
2013-03-10 01:00:00,49.0,38.2,29.84,North,354,1.0,13.0,66,0.00,FEW,,0.00,WeatherDisplay:10.37,2013-03-10 00:00:00,
2013-03-10 01:14:00,49.3,38.0,29.84,NNW,347,0.0,7.0,65,0.00,FEW,,0.00,WeatherDisplay:10.37,2013-03-10 00:14:00,
2013-03-10 01:30:00,49.6,39.1,29.84,NNW,343,5.0,14.0,67,0.00,FEW,,0.00,WeatherDisplay:10.37,2013-03-10 00:30:00,
2013-03-10 01:45:00,49.7,39.6,29.83,North,2,1.0,11.0,68,0.00,FEW,,0.00,WeatherDisplay:10.37,2013-03-10 00:45:00,
2013-03-10 02:00:00,49.8,39.3,29.83,North,358,1.0,11.0,67,0.00,FEW,,0.00,WeatherDisplay:10.37,2013-03-10 01:00:00,
2013-03-10 02:14:00,49.6,39.5,29.83,NNW,340,1.0,6.0,68,0.00,FEW,,0.00,WeatherDisplay:10.37,2013-03-10 01:14:00,
2013-03-10 02:30:00,49.3,39.2,29.83,North,0,0.0,2.0,68,0.00,FEW,,0.00,WeatherDisplay:10.37,2013-03-10 01:30:00,
2013-03-10 02:44:00,49.6,39.9,29.83,NNW,331,0.0,8.0,69,0.00,FEW,,0.00,WeatherDisplay:10.37,2013-03-10 01:44:00,
2013-03-10 03:00:00,49.1,39.4,29.83,NW,315,0.0,6.0,69,0.00,FEW,,0.00,WeatherDisplay:10.37,2013-03-10 02:00:00,
2013-03-10 03:14:00,48.6,39.2,29.83,NW,324,0.0,7.0,70,0.00,FEW,,0.00,WeatherDisplay:10.37,2013-03-10 02:14:00,
2013-03-10 03:30:00,48.3,39.3,29.83,WNW,284,0.0,6.0,71,0.00,FEW,,0.00,WeatherDisplay:10.37,2013-03-10 02:30:00,
2013-03-10 03:44:00,48.0,39.4,29.82,WNW,292,0.0,0.0,72,0.00,FEW,,0.00,WeatherDisplay:10.37,2013-03-10 02:44:00,
2013-03-10 04:00:00,47.5,39.3,29.81,WNW,292,0.0,0.0,73,0.00,FEW,,0.00,WeatherDisplay:10.37,2013-03-10 03:00:00,
2013-03-10 04:14:00,47.1,39.3,29.81,WNW,292,0.0,0.0,74,0.00,FEW,,0.00,WeatherDisplay:10.37,2013-03-10 03:14:00,
2013-03-10 04:30:00,46.6,39.1,29.81,WNW,292,0.0,0.0,75,0.00,FEW,,0.00,WeatherDisplay:10.37,2013-03-10 03:30:00,
2013-03-10 04:44:00,46.6,39.4,29.81,WNW,292,0.0,0.0,76,0.00,FEW,,0.00,WeatherDisplay:10.37,2013-03-10 03:44:00,
2013-03-10 05:00:00,46.8,39.6,29.81,WNW,292,0.0,0.0,76,0.00,FEW,,0.00,WeatherDisplay:10.37,2013-03-10 04:00:00,
2013-03-10 05:14:00,46.2,39.1,29.80,WNW,292,0.0,0.0,76,0.00,FEW,,0.00,WeatherDisplay:10.37,2013-03-10 04:14:00,
2013-03-10 05:30:00,46.2,39.4,29.81,WNW,292,0.0,0.0,77,0.00,FEW,,0.00,WeatherDisplay:10.37,2013-03-10 04:30:00,
2013-03-10 05:44:00,46.2,39.4,29.81,WNW,292,0.0,0.0,77,0.00,FEW,,0.00,WeatherDisplay:10.37,2013-03-10 04:44:00,
2013-03-10 06:00:00,46.6,39.8,29.81,WNW,292,0.0,0.0,77,0.00,FEW,,0.00,WeatherDisplay:10.37,2013-03-10 05:00:00,
2013-03-10 06:14:00,46.8,39.9,29.81,WNW,292,0.0,0.0,77,0.00,FEW,,0.00,WeatherDisplay:10.37,2013-03-10 05:14:00,
2013-03-10 06:30:00,46.9,40.1,29.81,WNW,292,0.0,0.0,77,0.00,FEW,,0.00,WeatherDisplay:10.37,2013-03-10 05:30:00,
2013-03-10 06:44:00,46.8,40.3,29.81,WNW,292,0.0,0.0,78,0.00,FEW,,0.00,WeatherDisplay:10.37,2013-03-10 05:44:00,
2013-03-10 07:00:00,46.6,40.1,29.81,WNW,292,0.0,0.0,78,0.00,FEW,,0.00,WeatherDisplay:10.37,2013-03-10 06:00:00,
2013-03-10 07:14:00,46.6,40.7,29.82,WNW,292,0.0,0.0,80,0.00,FEW,,0.00,WeatherDisplay:10.37,2013-03-10 06:14:00,
2013-03-10 07:29:00,46.3,40.5,29.82,WNW,292,0.0,0.0,80,0.00,FEW,,0.00,WeatherDisplay:10.37,2013-03-10 06:29:00,
2013-03-10 07:44:00,46.0,40.2,29.82,WNW,292,0.0,0.0,80,0.00,FEW,,0.00,WeatherDisplay:10.37,2013-03-10 06:44:00,
2013-03-10 08:00:00,46.0,40.9,29.82,WNW,292,0.0,0.0,82,0.00,-RA,,0.00,WeatherDisplay:10.37,2013-03-10 07:00:00,
2013-03-10 08:14:00,46.6,41.1,29.82,NNE,19,0.0,3.0,81,0.00,-RA,,0.00,WeatherDisplay:10.37,2013-03-10 07:14:00,
2013-03-10 08:29:00,47.7,41.8,29.82,NNW,347,0.0,9.0,80,0.00,-RA,,0.00,WeatherDisplay:10.37,2013-03-10 07:29:00,
2013-03-10 08:45:00,48.9,42.7,29.83,NW,315,0.0,5.0,79,0.00,-RA,,0.00,WeatherDisplay:10.37,2013-03-10 07:45:00,
2013-03-10 09:00:00,48.8,42.6,29.84,WSW,256,0.0,0.0,79,0.00,-RA,,0.00,WeatherDisplay:10.37,2013-03-10 08:00:00,
2013-03-10 09:15:00,49.1,42.5,29.84,NW,312,2.0,8.0,78,0.00,-RA,,0.00,WeatherDisplay:10.37,2013-03-10 08:15:00,
2013-03-10 09:30:00,49.7,43.2,29.85,WNW,292,0.0,10.0,78,0.00,-RA,,0.00,WeatherDisplay:10.37,2013-03-10 08:30:00,
2013-03-10 09:45:00,50.4,43.8,29.85,West,270,0.0,3.0,78,0.00,-RA,,0.00,WeatherDisplay:10.37,2013-03-10 08:45:00,
2013-03-10 10:00:00,51.4,44.0,29.84,West,280,0.0,4.0,76,0.00,-RA,,0.00,WeatherDisplay:10.37,2013-03-10 09:00:00,
2013-03-10 10:15:00,52.9,45.5,29.85,West,266,0.0,0.0,76,0.00,-RA,,0.00,WeatherDisplay:10.37,2013-03-10 09:15:00,
2013-03-10 10:30:00,54.1,45.7,29.85,SSW,207,0.0,8.0,73,0.00,-RA,,0.00,WeatherDisplay:10.37,2013-03-10 09:30:00,
2013-03-10 10:45:00,53.9,44.7,29.86,WSW,257,0.0,7.0,71,0.00,-RA,,0.00,WeatherDisplay:10.37,2013-03-10 09:45:00,
2013-03-10 11:00:00,54.3,45.1,29.86,West,275,0.0,8.0,71,0.00,BKN,,0.00,WeatherDisplay:10.37,2013-03-10 10:00:00,
2013-03-10 11:15:00,55.6,45.6,29.85,SSW,211,0.0,6.0,69,0.00,BKN,,0.00,WeatherDisplay:10.37,2013-03-10 10:15:00,
2013-03-10 11:30:00,55.3,45.3,29.85,SW,227,0.0,4.0,69,0.00,BKN,,0.00,WeatherDisplay:10.37,2013-03-10 10:30:00,
2013-03-10 11:45:00,56.6,46.5,29.85,SSW,195,0.0,7.0,69,0.00,BKN,,0.00,WeatherDisplay:10.37,2013-03-10 10:45:00,
2013-03-10 12:00:00,56.6,45.7,29.85,SSW,194,0.0,6.0,67,0.00,BKN,,0.00,WeatherDisplay:10.37,2013-03-10 11:00:00,
2013-03-10 12:15:00,56.0,45.2,29.84,SSW,192,1.0,8.0,67,0.00,BKN,,0.00,WeatherDisplay:10.37,2013-03-10 11:15:00,
2013-03-10 12:30:00,54.7,44.3,29.84,WSW,245,0.0,6.0,68,0.00,BKN,,0.00,WeatherDisplay:10.37,2013-03-10 11:30:00,
2013-03-10 12:45:00,54.5,44.6,29.85,WSW,257,3.0,6.0,69,0.00,BKN,,0.00,WeatherDisplay:10.37,2013-03-10 11:45:00,
2013-03-10 13:00:00,56.5,46.4,29.84,SW,231,1.0,5.0,69,0.00,BKN,,0.00,WeatherDisplay:10.37,2013-03-10 12:00:00,
2013-03-10 13:15:00,56.8,46.0,29.83,West,263,0.0,8.0,67,0.00,BKN,,0.00,WeatherDisplay:10.37,2013-03-10 12:15:00,
2013-03-10 13:30:00,57.0,46.2,29.83,West,275,1.0,8.0,67,0.00,BKN,,0.00,WeatherDisplay:10.37,2013-03-10 12:30:00,
2013-03-10 13:45:00,55.4,46.2,29.83,NW,306,5.0,12.0,71,0.00,BKN,,0.00,WeatherDisplay:10.37,2013-03-10 12:45:00,
2013-03-10 14:00:00,54.7,43.5,29.83,WNW,303,9.0,16.0,66,0.00,BKN,,0.00,WeatherDisplay:10.37,2013-03-10 13:00:00,
2013-03-10 14:15:00,55.8,44.2,29.82,WNW,297,8.0,13.0,65,0.00,BKN,,0.00,WeatherDisplay:10.37,2013-03-10 13:15:00,
2013-03-10 14:30:00,54.4,42.9,29.82,West,276,9.0,19.0,65,0.00,BKN,,0.00,WeatherDisplay:10.37,2013-03-10 13:30:00,
2013-03-10 14:45:00,53.8,42.7,29.82,West,267,3.0,16.0,66,0.00,BKN,,0.00,WeatherDisplay:10.37,2013-03-10 13:45:00,
2013-03-10 15:00:00,53.1,43.2,29.81,West,280,0.0,16.0,69,0.00,BKN,,0.00,WeatherDisplay:10.37,2013-03-10 14:00:00,
2013-03-10 15:15:00,51.7,43.3,29.81,SSW,209,3.0,12.0,73,0.00,BKN,,0.00,WeatherDisplay:10.37,2013-03-10 14:15:00,
2013-03-10 15:30:00,53.2,46.9,29.81,SSW,213,2.0,7.0,79,0.00,BKN,,0.00,WeatherDisplay:10.37,2013-03-10 14:30:00,
2013-03-10 15:45:00,54.8,47.4,29.80,SSW,198,0.0,7.0,76,0.00,BKN,,0.00,WeatherDisplay:10.37,2013-03-10 14:45:00,
2013-03-10 16:00:00,54.5,46.4,29.80,WSW,250,0.0,0.0,74,0.00,BKN,,0.00,WeatherDisplay:10.37,2013-03-10 15:00:00,
2013-03-10 16:15:00,53.9,46.1,29.80,SSW,213,0.0,6.0,75,0.00,BKN,,0.00,WeatherDisplay:10.37,2013-03-10 15:15:00,
2013-03-10 16:30:00,52.9,45.5,29.79,South,180,0.0,0.0,76,0.00,BKN,,0.00,WeatherDisplay:10.37,2013-03-10 15:30:00,
2013-03-10 16:45:00,52.3,45.3,29.79,SSW,202,0.0,0.0,77,0.00,BKN,,0.00,WeatherDisplay:10.37,2013-03-10 15:45:00,
2013-03-10 17:00:00,51.6,45.7,29.80,SW,226,0.0,10.0,80,0.00,BKN,,0.00,WeatherDisplay:10.37,2013-03-10 16:00:00,
2013-03-10 17:15:00,49.8,44.5,29.80,NW,315,1.0,11.0,82,0.06,BKN,,0.06,WeatherDisplay:10.37,2013-03-10 16:15:00,
2013-03-10 17:30:00,51.6,47.6,29.79,West,266,0.0,8.0,86,0.00,BKN,,0.06,WeatherDisplay:10.37,2013-03-10 16:30:00,
2013-03-10 17:45:00,51.6,47.0,29.80,South,190,0.0,5.0,84,0.00,BKN,,0.06,WeatherDisplay:10.37,2013-03-10 16:45:00,
2013-03-10 18:00:00,51.0,46.3,29.80,SSW,197,0.0,0.0,84,0.00,BKN,,0.06,WeatherDisplay:10.37,2013-03-10 17:00:00,
2013-03-10 18:15:00,50.7,46.4,29.81,SSW,202,0.0,0.0,85,0.00,BKN,,0.06,WeatherDisplay:10.37,2013-03-10 17:15:00,
2013-03-10 18:30:00,50.7,46.4,29.81,SSW,202,0.0,0.0,85,0.00,BKN,,0.06,WeatherDisplay:10.37,2013-03-10 17:30:00,
2013-03-10 18:45:00,50.4,46.7,29.81,SSW,202,0.0,8.0,87,0.00,BKN,,0.06,WeatherDisplay:10.37,2013-03-10 17:45:00,
2013-03-10 19:00:00,50.2,46.5,29.81,SSW,202,0.0,0.0,87,0.00,BKN,,0.06,WeatherDisplay:10.37,2013-03-10 18:00:00,
2013-03-10 19:15:00,49.8,46.1,29.82,SSW,202,0.0,0.0,87,0.00,BKN,,0.06,WeatherDisplay:10.37,2013-03-10 18:15:00,
2013-03-10 19:30:00,49.2,45.2,29.82,SSW,202,0.0,0.0,86,0.00,BKN,,0.06,WeatherDisplay:10.37,2013-03-10 18:30:00,
2013-03-10 19:45:00,48.7,44.7,29.83,SSW,202,0.0,0.0,86,0.00,BKN,,0.06,WeatherDisplay:10.37,2013-03-10 18:45:00,
2013-03-10 20:00:00,48.6,44.9,29.83,SSW,196,0.0,0.0,87,0.00,-RA,,0.06,WeatherDisplay:10.37,2013-03-10 19:00:00,
2013-03-10 20:15:00,48.4,44.7,29.84,South,180,0.0,0.0,87,0.00,-RA,,0.06,WeatherDisplay:10.37,2013-03-10 19:15:00,
2013-03-10 20:30:00,48.4,44.7,29.85,South,180,0.0,0.0,87,0.00,-RA,,0.06,WeatherDisplay:10.37,2013-03-10 19:30:00,
2013-03-10 20:45:00,48.1,44.4,29.85,West,267,3.0,8.0,87,0.00,-RA,,0.06,WeatherDisplay:10.37,2013-03-10 19:45:00,
2013-03-10 21:00:00,48.4,41.5,29.86,WNW,290,9.0,16.0,77,0.00, +RA,,0.06,WeatherDisplay:10.37,2013-03-10 20:00:00,
2013-03-10 21:15:00,48.6,40.6,29.86,WNW,283,0.0,21.0,74,0.00, +RA,,0.06,WeatherDisplay:10.37,2013-03-10 20:15:00,
2013-03-10 21:30:00,48.4,40.5,29.86,WNW,287,5.0,13.0,74,0.00, +RA,,0.06,WeatherDisplay:10.37,2013-03-10 20:30:00,
2013-03-10 21:45:00,48.0,40.1,29.87,West,268,0.0,13.0,74,0.00, +RA,,0.06,WeatherDisplay:10.37,2013-03-10 20:45:00,
2013-03-10 22:00:00,47.8,40.3,29.88,NW,320,0.0,7.0,75,0.00,BKN,,0.06,WeatherDisplay:10.37,2013-03-10 21:00:00,
2013-03-10 22:15:00,48.1,40.5,29.87,NW,316,3.0,16.0,75,0.00,BKN,,0.06,WeatherDisplay:10.37,2013-03-10 21:15:00,
2013-03-10 22:30:00,48.6,40.6,29.88,North,356,2.0,13.0,74,0.00,BKN,,0.06,WeatherDisplay:10.37,2013-03-10 21:30:00,
2013-03-10 22:45:00,48.7,40.8,29.88,NNW,339,0.0,12.0,74,0.00,BKN,,0.06,WeatherDisplay:10.37,2013-03-10 21:45:00,
2013-03-10 23:00:00,48.4,40.5,29.88,NNW,343,5.0,9.0,74,0.00,BKN,,0.06,WeatherDisplay:10.37,2013-03-10 22:00:00,
2013-03-10 23:15:00,48.4,40.9,29.88,NNW,334,0.0,12.0,75,0.00,BKN,,0.06,WeatherDisplay:10.37,2013-03-10 22:15:00,
2013-03-10 23:30:00,48.1,40.6,29.88,WNW,303,6.0,10.0,75,0.00,BKN,,0.06,WeatherDisplay:10.37,2013-03-10 22:30:00,
2013-03-10 23:45:00,47.8,40.3,29.89,NW,324,6.0,14.0,75,0.00,BKN,,0.06,WeatherDisplay:10.37,2013-03-10 22:45:00,